Impacts TAF Board INFO
FOR SITUATIONAL AWARENESS. NOT TO BE USED FOR FLIGHT PLANNING PURPOSES.
IDs:

KDTW - Detroit Metro/Wayne, MI, US

Issued at 2328 UTC 12 Dec 2017
Updated at 0128 UTC 13 Dec 2017
Potential Impact None Slight Moderate High
Time0053Z 13/02Z 13/03Z 13/04Z 13/05Z 13/06Z 13/07Z 13/08Z 13/09Z 13/10Z 13/11Z 13/12Z 13/13Z 13/14Z>>
Type OBS PRVL PRVL PRVL PRVL PRVL PRVL PRVL PRVL PRVL PRVL PRVL PRVL PRVL
VIS 10 >6 >6 >6 >6 >6 >6 >6 >6 >6 >6 >6 >6 >6
CIG 60 -- -- -- -- -- -- -- 150 150 150 150 150 150
Cover BKN SCT SCT SCT SCT SCT SCT SCT OVC OVC OVC OVC OVC OVC
FltCat VFR VFR VFR VFR VFR VFR VFR VFR VFR VFR VFR VFR VFR VFR
WX -- -- -- -- -- -- -- -- -- -- -- -- -- --
WDir 300 310 310 310 310 310 310 310 220 220 220 220 220 220
WSpd 10 12 12 12 12 12 12 12 7 7 7 7 7 7
WGst -- -- -- -- -- -- -- -- -- -- -- -- -- --

Raw TAF
KDTW 122328Z 1300/1406 31012KT P6SM SCT050
  FM130900 22007KT P6SM SCT035 OVC150
  FM131500 18007KT 6SM -SN OVC025
  FM131800 14010KT 1 1/2SM -SN OVC018
  FM132200 12012KT 1/2SM SN OVC005


Raw METAR
KDTW 130053Z 30010KT 10SM BKN060 M08/M15 A2991 RMK AO2 SLP139 T10781150
KDTW 122353Z 30009KT 10SM BKN060 M08/M15 A2991 RMK AO2 SLP136 T10781150 11056 21078 53014
KDTW 122253Z 31011KT 10SM SCT045 BKN060 M07/M16 A2989 RMK AO2 SLP132 T10721156

METAR Board
Radar Display
Forecast Discussion

FOR SITUATIONAL AWARENESS. NOT TO BE USED FOR FLIGHT PLANNING PURPOSES.